createdAt,value
2019-05-26T00:00:39.067Z,1011.75
2019-05-26T00:01:39.062Z,1011.78
2019-05-26T00:02:39.060Z,1011.76
2019-05-26T00:03:39.129Z,1011.75
2019-05-26T00:04:39.044Z,1011.71
2019-05-26T00:05:39.040Z,1011.73
2019-05-26T00:06:39.033Z,1011.68
2019-05-26T00:07:39.027Z,1011.68
2019-05-26T00:08:39.025Z,1011.68
2019-05-26T00:09:39.026Z,1011.66
2019-05-26T00:10:39.018Z,1011.68
2019-05-26T00:11:39.009Z,1011.66
2019-05-26T00:12:38.997Z,1011.64
2019-05-26T00:13:38.998Z,1011.67
2019-05-26T00:14:38.991Z,1011.62
2019-05-26T00:15:38.989Z,1011.62
2019-05-26T00:16:38.976Z,1011.62
2019-05-26T00:17:38.972Z,1011.62
2019-05-26T00:18:38.969Z,1011.62
2019-05-26T00:19:38.961Z,1011.58
2019-05-26T00:20:38.964Z,1011.60
2019-05-26T00:21:38.956Z,1011.61
2019-05-26T00:22:38.949Z,1011.57
2019-05-26T00:23:38.949Z,1011.63
2019-05-26T00:24:38.934Z,1011.55
2019-05-26T00:25:38.937Z,1011.58
2019-05-26T00:26:38.922Z,1011.59
2019-05-26T00:27:38.917Z,1011.57
2019-05-26T00:28:38.917Z,1011.60
2019-05-26T00:29:38.914Z,1011.61
2019-05-26T00:30:38.898Z,1011.58
2019-05-26T00:31:38.891Z,1011.59
2019-05-26T00:32:38.890Z,1011.55
2019-05-26T00:33:38.886Z,1011.57
2019-05-26T00:34:38.883Z,1011.57
2019-05-26T00:35:38.875Z,1011.57
2019-05-26T00:36:38.878Z,1011.55
2019-05-26T00:37:49.074Z,1011.59
2019-05-26T00:38:38.854Z,1011.54
2019-05-26T00:39:38.847Z,1011.59
2019-05-26T00:40:38.845Z,1011.50
2019-05-26T00:41:38.843Z,1011.54
2019-05-26T00:42:38.838Z,1011.51
2019-05-26T00:43:38.832Z,1011.47
2019-05-26T00:44:38.822Z,1011.46
2019-05-26T00:45:38.820Z,1011.50
2019-05-26T00:46:38.814Z,1011.50
2019-05-26T00:47:38.815Z,1011.50
2019-05-26T00:48:38.799Z,1011.46
2019-05-26T00:49:38.794Z,1011.45
2019-05-26T00:50:38.787Z,1011.45
2019-05-26T00:51:38.779Z,1011.44
2019-05-26T00:52:38.782Z,1011.47
2019-05-26T00:53:38.773Z,1011.39
2019-05-26T00:54:38.772Z,1011.44
2019-05-26T00:55:38.762Z,1011.43
2019-05-26T00:56:38.751Z,1011.45
2019-05-26T00:57:38.759Z,1011.41
2019-05-26T00:58:38.743Z,1011.44
2019-05-26T00:59:38.738Z,1011.44
2019-05-26T01:00:38.738Z,1011.41
2019-05-26T01:01:38.731Z,1011.41
2019-05-26T01:02:38.731Z,1011.40
2019-05-26T01:03:38.714Z,1011.38
2019-05-26T01:04:38.713Z,1011.42
2019-05-26T01:05:38.708Z,1011.39
2019-05-26T01:06:38.700Z,1011.36
2019-05-26T01:07:38.705Z,1011.41
2019-05-26T01:08:38.683Z,1011.41
2019-05-26T01:09:38.678Z,1011.39
2019-05-26T01:10:38.674Z,1011.40
2019-05-26T01:11:38.665Z,1011.41
2019-05-26T01:12:38.666Z,1011.40
2019-05-26T01:13:38.660Z,1011.36
2019-05-26T01:14:38.656Z,1011.37
2019-05-26T01:15:38.651Z,1011.38
2019-05-26T01:16:38.640Z,1011.39
2019-05-26T01:17:38.637Z,1011.35
2019-05-26T01:18:38.654Z,1011.36
2019-05-26T01:19:38.627Z,1011.36
2019-05-26T01:20:38.617Z,1011.34
2019-05-26T01:21:38.612Z,1011.40
2019-05-26T01:22:38.605Z,1011.43
2019-05-26T01:23:38.598Z,1011.45
2019-05-26T01:24:38.595Z,1011.41
2019-05-26T01:25:38.592Z,1011.40
2019-05-26T01:26:38.586Z,1011.43
2019-05-26T01:27:38.581Z,1011.35
2019-05-26T01:28:38.568Z,1011.37
2019-05-26T01:29:38.566Z,1011.35
2019-05-26T01:30:38.564Z,1011.33
2019-05-26T01:31:38.558Z,1011.33
2019-05-26T01:32:38.554Z,1011.34
2019-05-26T01:33:38.549Z,1011.33
2019-05-26T01:34:38.537Z,1011.39
2019-05-26T01:35:38.530Z,1011.36
2019-05-26T01:36:38.538Z,1011.35
2019-05-26T01:37:38.531Z,1011.37
2019-05-26T01:38:38.516Z,1011.35
2019-05-26T01:39:38.509Z,1011.34
2019-05-26T01:40:38.499Z,1011.33
2019-05-26T01:41:38.495Z,1011.36
2019-05-26T01:42:38.491Z,1011.37
2019-05-26T01:43:38.491Z,1011.37
2019-05-26T01:44:38.484Z,1011.38
2019-05-26T01:45:38.484Z,1011.36
2019-05-26T01:46:38.469Z,1011.34
2019-05-26T01:47:38.463Z,1011.32
2019-05-26T01:48:38.453Z,1011.37
2019-05-26T01:49:38.446Z,1011.33
2019-05-26T01:50:38.446Z,1011.35
2019-05-26T01:51:38.439Z,1011.37
2019-05-26T01:52:38.431Z,1011.39
2019-05-26T01:53:38.424Z,1011.40
2019-05-26T01:54:40.736Z,1011.34
2019-05-26T01:55:38.421Z,1011.32
2019-05-26T01:56:38.414Z,1011.37
2019-05-26T01:57:38.408Z,1011.32
2019-05-26T01:58:38.402Z,1011.32
2019-05-26T01:59:38.396Z,1011.33
2019-05-26T02:00:38.388Z,1011.31
2019-05-26T02:01:38.383Z,1011.35
2019-05-26T02:02:38.374Z,1011.33
2019-05-26T02:03:38.367Z,1011.40
2019-05-26T02:04:38.370Z,1011.40
2019-05-26T02:05:38.361Z,1011.37
2019-05-26T02:06:38.350Z,1011.39
2019-05-26T02:07:38.347Z,1011.32
2019-05-26T02:08:39.846Z,1011.27
2019-05-26T02:09:38.347Z,1011.28
2019-05-26T02:10:38.335Z,1011.33
2019-05-26T02:11:38.329Z,1011.28
2019-05-26T02:12:38.319Z,1011.29
2019-05-26T02:13:38.313Z,1011.25
2019-05-26T02:14:38.321Z,1011.22
2019-05-26T02:15:38.303Z,1011.28
2019-05-26T02:16:38.301Z,1011.21
2019-05-26T02:17:38.299Z,1011.25
2019-05-26T02:18:38.289Z,1011.28
2019-05-26T02:19:38.283Z,1011.35
2019-05-26T02:20:38.272Z,1011.33
2019-05-26T02:21:38.266Z,1011.37
2019-05-26T02:22:38.267Z,1011.38
2019-05-26T02:23:38.261Z,1011.39
2019-05-26T02:24:38.249Z,1011.38
2019-05-26T02:25:38.245Z,1011.36
2019-05-26T02:26:38.255Z,1011.36
2019-05-26T02:27:38.235Z,1011.34
2019-05-26T02:28:38.234Z,1011.35
2019-05-26T02:29:38.229Z,1011.34
2019-05-26T02:30:38.239Z,1011.36
2019-05-26T02:31:38.270Z,1011.37
2019-05-26T02:32:38.327Z,1011.38
2019-05-26T02:33:38.201Z,1011.37
2019-05-26T02:34:38.192Z,1011.40
2019-05-26T02:35:38.187Z,1011.37
2019-05-26T02:36:38.186Z,1011.31
2019-05-26T02:37:38.180Z,1011.26
2019-05-26T02:38:57.335Z,1011.28
2019-05-26T02:39:38.164Z,1011.25
2019-05-26T02:40:38.165Z,1011.25
2019-05-26T02:41:38.162Z,1011.22
2019-05-26T02:42:38.158Z,1011.25
2019-05-26T02:43:38.152Z,1011.24
2019-05-26T02:44:38.138Z,1011.24
2019-05-26T02:45:38.194Z,1011.18
2019-05-26T02:46:38.133Z,1011.23
2019-05-26T02:47:38.122Z,1011.17
2019-05-26T02:48:38.117Z,1011.20
2019-05-26T02:49:38.111Z,1011.22
2019-05-26T02:50:38.108Z,1011.13
2019-05-26T02:51:38.113Z,1011.16
2019-05-26T02:52:38.093Z,1011.14
2019-05-26T02:53:38.096Z,1011.14
2019-05-26T02:54:38.107Z,1011.18
2019-05-26T02:55:38.086Z,1011.20
2019-05-26T02:56:38.070Z,1011.16
2019-05-26T02:57:38.065Z,1011.19
2019-05-26T02:58:38.057Z,1011.13
2019-05-26T02:59:38.050Z,1011.14
2019-05-26T03:00:38.057Z,1011.17
2019-05-26T03:01:38.042Z,1011.12
2019-05-26T03:02:38.038Z,1011.09
2019-05-26T03:03:38.032Z,1011.11
2019-05-26T03:04:38.023Z,1011.11
2019-05-26T03:05:38.016Z,1011.15
2019-05-26T03:06:38.028Z,1011.16
2019-05-26T03:07:38.009Z,1011.13
2019-05-26T03:08:38.007Z,1011.10
2019-05-26T03:09:38.002Z,1011.11
2019-05-26T03:10:37.990Z,1011.08
2019-05-26T03:11:37.991Z,1011.10
2019-05-26T03:12:37.982Z,1011.09
2019-05-26T03:13:37.979Z,1011.11
2019-05-26T03:14:37.973Z,1011.13
2019-05-26T03:15:37.963Z,1011.10
2019-05-26T03:16:37.957Z,1011.13
2019-05-26T03:17:37.946Z,1011.09
2019-05-26T03:18:37.942Z,1011.12
2019-05-26T03:19:37.936Z,1011.11
2019-05-26T03:20:37.934Z,1011.09
2019-05-26T03:21:37.935Z,1011.14
2019-05-26T03:22:37.931Z,1011.12
2019-05-26T03:23:37.921Z,1011.12
2019-05-26T03:24:37.909Z,1011.13
2019-05-26T03:25:37.906Z,1011.09
2019-05-26T03:26:37.902Z,1011.13
2019-05-26T03:27:37.897Z,1011.16
2019-05-26T03:28:37.887Z,1011.20
2019-05-26T03:29:37.884Z,1011.13
2019-05-26T03:30:37.991Z,1011.13
2019-05-26T03:31:37.868Z,1011.16
2019-05-26T03:32:37.871Z,1011.16
2019-05-26T03:33:37.859Z,1011.12
2019-05-26T03:34:37.856Z,1011.18
2019-05-26T03:35:37.847Z,1011.16
2019-05-26T03:36:37.849Z,1011.19
2019-05-26T03:37:37.833Z,1011.15
2019-05-26T03:38:37.831Z,1011.15
2019-05-26T03:39:45.003Z,1011.11
2019-05-26T03:40:37.828Z,1011.19
2019-05-26T03:41:37.816Z,1011.19
2019-05-26T03:42:37.858Z,1011.17
2019-05-26T03:43:37.800Z,1011.15
2019-05-26T03:44:37.805Z,1011.17
2019-05-26T03:45:37.792Z,1011.18
2019-05-26T03:46:37.785Z,1011.16
2019-05-26T03:47:37.787Z,1011.17
2019-05-26T03:48:37.771Z,1011.12
2019-05-26T03:49:37.763Z,1011.14
2019-05-26T03:50:37.760Z,1011.17
2019-05-26T03:51:37.753Z,1011.19
2019-05-26T03:52:37.751Z,1011.21
2019-05-26T03:53:37.747Z,1011.21
2019-05-26T03:54:37.742Z,1011.20
2019-05-26T03:55:37.819Z,1011.23
2019-05-26T03:56:37.722Z,1011.27
2019-05-26T03:57:37.724Z,1011.25
2019-05-26T03:58:37.716Z,1011.22
2019-05-26T03:59:37.709Z,1011.23
2019-05-26T04:00:37.698Z,1011.20
2019-05-26T04:01:37.693Z,1011.23
2019-05-26T04:02:37.690Z,1011.22
2019-05-26T04:03:37.684Z,1011.25
2019-05-26T04:04:37.697Z,1011.24
2019-05-26T04:05:37.682Z,1011.22
2019-05-26T04:06:37.672Z,1011.21
2019-05-26T04:07:37.662Z,1011.21
2019-05-26T04:08:37.656Z,1011.22
2019-05-26T04:09:37.650Z,1011.22
2019-05-26T04:10:37.640Z,1011.15
2019-05-26T04:11:37.635Z,1011.13
2019-05-26T04:12:37.632Z,1011.15
2019-05-26T04:13:37.628Z,1011.12
2019-05-26T04:14:37.621Z,1011.13
2019-05-26T04:15:37.610Z,1011.13
2019-05-26T04:16:37.613Z,1011.10
2019-05-26T04:17:37.609Z,1011.09
2019-05-26T04:18:37.608Z,1011.04
2019-05-26T04:19:37.597Z,1011.08
2019-05-26T04:20:37.587Z,1011.07
2019-05-26T04:21:37.586Z,1011.04
2019-05-26T04:22:37.580Z,1011.06
2019-05-26T04:23:37.604Z,1011.10
2019-05-26T04:24:37.569Z,1011.03
2019-05-26T04:25:37.562Z,1011.00
2019-05-26T04:26:37.555Z,1011.08
2019-05-26T04:27:37.549Z,1011.10
2019-05-26T04:28:37.539Z,1011.12
2019-05-26T04:29:37.535Z,1011.07
2019-05-26T04:30:37.533Z,1011.07
2019-05-26T04:31:37.530Z,1011.00
2019-05-26T04:32:37.519Z,1011.01
2019-05-26T04:33:37.512Z,1011.05
2019-05-26T04:34:37.511Z,1011.06
2019-05-26T04:35:37.504Z,1011.01
2019-05-26T04:36:37.505Z,1011.08
2019-05-26T04:37:37.500Z,1011.05
2019-05-26T04:38:37.494Z,1011.01
2019-05-26T04:39:37.489Z,1011.04
2019-05-26T04:40:37.481Z,1011.03
2019-05-26T04:41:37.477Z,1011.06
2019-05-26T04:42:37.480Z,1011.04
2019-05-26T04:43:37.467Z,1011.05
2019-05-26T04:44:37.462Z,1011.08
2019-05-26T04:45:37.456Z,1011.10
2019-05-26T04:46:37.447Z,1011.11
2019-05-26T04:47:37.456Z,1011.10
2019-05-26T04:48:37.442Z,1011.10
2019-05-26T04:49:37.932Z,1011.11
2019-05-26T04:50:37.434Z,1011.12
2019-05-26T04:51:37.454Z,1011.11
2019-05-26T04:52:37.436Z,1011.15
2019-05-26T04:53:37.419Z,1011.15
2019-05-26T04:54:37.408Z,1011.13
2019-05-26T04:55:37.401Z,1011.16
2019-05-26T04:56:37.406Z,1011.21
2019-05-26T04:57:37.397Z,1011.19
2019-05-26T04:58:37.396Z,1011.17
2019-05-26T04:59:37.390Z,1011.24
2019-05-26T05:00:37.382Z,1011.23
2019-05-26T05:01:37.380Z,1011.26
2019-05-26T05:02:37.378Z,1011.23
2019-05-26T05:03:37.372Z,1011.26
2019-05-26T05:04:37.364Z,1011.16
2019-05-26T05:05:37.360Z,1011.18
2019-05-26T05:06:37.352Z,1011.21
2019-05-26T05:07:37.350Z,1011.20
2019-05-26T05:08:37.348Z,1011.19
2019-05-26T05:09:37.343Z,1011.25
2019-05-26T05:10:42.249Z,1011.26
2019-05-26T05:11:37.338Z,1011.20
2019-05-26T05:12:37.328Z,1011.19
2019-05-26T05:13:37.322Z,1011.20
2019-05-26T05:14:37.323Z,1011.19
2019-05-26T05:15:37.321Z,1011.16
2019-05-26T05:16:37.320Z,1011.15
2019-05-26T05:17:37.321Z,1011.12
2019-05-26T05:18:37.320Z,1011.12
2019-05-26T05:19:37.307Z,1011.15
2019-05-26T05:20:37.305Z,1011.10
2019-05-26T05:21:37.301Z,1011.11
2019-05-26T05:22:37.300Z,1011.11
2019-05-26T05:23:37.292Z,1011.09
2019-05-26T05:24:37.356Z,1011.06
2019-05-26T05:25:37.281Z,1011.05
2019-05-26T05:26:37.278Z,1010.99
2019-05-26T05:27:37.272Z,1011.02
2019-05-26T05:28:37.275Z,1011.00
2019-05-26T05:29:37.270Z,1010.98
2019-05-26T05:30:37.271Z,1011.00
2019-05-26T05:31:37.267Z,1010.96
2019-05-26T05:32:37.259Z,1010.94
2019-05-26T05:33:37.256Z,1010.95
2019-05-26T05:34:37.255Z,1010.95
2019-05-26T05:35:37.252Z,1010.91
2019-05-26T05:36:37.247Z,1010.95
2019-05-26T05:37:37.244Z,1010.92
2019-05-26T05:38:37.236Z,1010.98
2019-05-26T05:39:37.237Z,1010.93
2019-05-26T05:40:37.234Z,1011.02
2019-05-26T05:41:37.231Z,1011.02
2019-05-26T05:42:37.227Z,1010.97
2019-05-26T05:43:37.225Z,1010.99
2019-05-26T05:44:37.218Z,1011.03
2019-05-26T05:45:37.214Z,1011.05
2019-05-26T05:46:37.213Z,1011.09
2019-05-26T05:47:37.212Z,1011.04
2019-05-26T05:48:37.213Z,1011.07
2019-05-26T05:49:37.205Z,1011.04
2019-05-26T05:50:39.343Z,1011.10
2019-05-26T05:51:37.198Z,1011.13
2019-05-26T05:52:37.196Z,1011.17
2019-05-26T05:53:37.196Z,1011.12
2019-05-26T05:54:37.189Z,1011.16
2019-05-26T05:55:37.186Z,1011.10
2019-05-26T05:56:37.178Z,1011.14
2019-05-26T05:57:37.176Z,1011.19
2019-05-26T05:58:37.172Z,1011.22
2019-05-26T05:59:37.171Z,1011.18
2019-05-26T06:00:37.181Z,1011.26
2019-05-26T06:01:37.171Z,1011.31
2019-05-26T06:02:37.175Z,1011.39
2019-05-26T06:03:37.165Z,1011.38
2019-05-26T06:04:37.161Z,1011.45
2019-05-26T06:05:37.159Z,1011.44
2019-05-26T06:06:37.159Z,1011.42
2019-05-26T06:07:37.157Z,1011.42
2019-05-26T06:08:37.153Z,1011.47
2019-05-26T06:09:37.150Z,1011.55
2019-05-26T06:10:37.160Z,1011.54
2019-05-26T06:11:37.154Z,1011.65
2019-05-26T06:12:37.148Z,1011.68
2019-05-26T06:13:37.146Z,1011.69
2019-05-26T06:14:37.149Z,1011.72
2019-05-26T06:15:37.144Z,1011.69
2019-05-26T06:16:37.140Z,1011.61
2019-05-26T06:17:37.140Z,1011.54
2019-05-26T06:18:37.145Z,1011.63
2019-05-26T06:19:37.140Z,1011.61
2019-05-26T06:20:37.144Z,1011.59
2019-05-26T06:21:37.145Z,1011.60
2019-05-26T06:22:37.148Z,1011.60
2019-05-26T06:23:37.395Z,1011.63
2019-05-26T06:24:37.145Z,1011.67
2019-05-26T06:25:37.147Z,1011.65
2019-05-26T06:26:37.146Z,1011.59
2019-05-26T06:27:37.148Z,1011.58
2019-05-26T06:28:37.142Z,1011.57
2019-05-26T06:29:37.144Z,1011.55
2019-05-26T06:30:37.146Z,1011.62
2019-05-26T06:31:37.410Z,1011.65
2019-05-26T06:32:37.152Z,1011.74
2019-05-26T06:33:37.153Z,1011.69
2019-05-26T06:34:37.160Z,1011.80
2019-05-26T06:35:37.159Z,1011.84
2019-05-26T06:36:37.157Z,1011.88
2019-05-26T06:37:37.157Z,1011.87
2019-05-26T06:38:37.165Z,1011.96
2019-05-26T06:39:37.165Z,1011.93
2019-05-26T06:40:37.171Z,1011.87
2019-05-26T06:41:37.167Z,1011.86
2019-05-26T06:42:37.168Z,1011.90
2019-05-26T06:43:37.171Z,1011.85
2019-05-26T06:44:52.367Z,1011.81
2019-05-26T06:45:37.186Z,1011.83
2019-05-26T06:46:37.190Z,1011.92
2019-05-26T06:47:37.202Z,1011.95
2019-05-26T06:48:37.183Z,1011.96
2019-05-26T06:49:37.188Z,1011.94
2019-05-26T06:50:37.194Z,1011.96
2019-05-26T06:51:37.199Z,1011.99
2019-05-26T06:52:37.205Z,1012.04
2019-05-26T06:53:37.695Z,1012.06
2019-05-26T06:54:37.216Z,1012.08
2019-05-26T06:55:37.217Z,1012.13
2019-05-26T06:56:37.223Z,1012.12
2019-05-26T06:57:37.229Z,1012.05
2019-05-26T06:58:37.247Z,1011.99
2019-05-26T06:59:37.236Z,1011.99
2019-05-26T07:00:37.237Z,1011.93
2019-05-26T07:01:37.241Z,1011.85
2019-05-26T07:02:37.251Z,1011.73
2019-05-26T07:03:37.256Z,1011.62
2019-05-26T07:04:37.268Z,1011.56
2019-05-26T07:05:37.272Z,1011.53
2019-05-26T07:06:37.273Z,1011.52
2019-05-26T07:07:37.279Z,1011.52
2019-05-26T07:08:37.352Z,1011.52
2019-05-26T07:09:37.288Z,1011.54
2019-05-26T07:10:37.295Z,1011.50
2019-05-26T07:11:53.999Z,1011.57
2019-05-26T07:12:37.315Z,1011.72
2019-05-26T07:13:37.310Z,1012.00
2019-05-26T07:14:37.315Z,1011.88
2019-05-26T07:15:37.317Z,1012.08
2019-05-26T07:16:38.896Z,1012.28
2019-05-26T07:17:37.333Z,1012.37
2019-05-26T07:18:37.338Z,1012.42
2019-05-26T07:19:37.342Z,1012.43
2019-05-26T07:20:37.343Z,1012.35
2019-05-26T07:21:37.352Z,1012.37
2019-05-26T07:22:37.351Z,1012.37
2019-05-26T07:23:37.358Z,1012.32
2019-05-26T07:24:37.369Z,1012.21
2019-05-26T07:25:37.442Z,1012.28
2019-05-26T07:26:37.382Z,1012.42
2019-05-26T07:27:37.379Z,1012.52
2019-05-26T07:28:37.392Z,1012.53
2019-05-26T07:29:37.397Z,1012.51
2019-05-26T07:30:37.408Z,1012.43
2019-05-26T07:31:37.414Z,1012.52
2019-05-26T07:32:37.425Z,1012.55
2019-05-26T07:33:37.427Z,1012.59
2019-05-26T07:34:37.433Z,1012.56
2019-05-26T07:35:37.440Z,1012.57
2019-05-26T07:36:37.453Z,1012.40
2019-05-26T07:37:37.461Z,1012.56
2019-05-26T07:38:37.467Z,1012.39
2019-05-26T07:39:37.476Z,1012.58
2019-05-26T07:40:37.480Z,1012.56
2019-05-26T07:41:37.492Z,1012.37
2019-05-26T07:42:37.505Z,1011.80
2019-05-26T07:43:37.511Z,1011.81
2019-05-26T07:44:37.517Z,1011.79
2019-05-26T07:45:37.527Z,1011.80
2019-05-26T07:46:37.538Z,1011.73
2019-05-26T07:47:37.547Z,1011.72
2019-05-26T07:48:37.560Z,1011.75
2019-05-26T07:49:37.573Z,1011.75
2019-05-26T07:50:37.579Z,1011.71
2019-05-26T07:51:37.589Z,1011.81
2019-05-26T07:52:37.595Z,1011.72
2019-05-26T07:53:37.604Z,1011.71
2019-05-26T07:54:37.617Z,1011.84
2019-05-26T07:55:37.618Z,1011.81
2019-05-26T07:56:37.634Z,1011.81
2019-05-26T07:57:37.643Z,1011.77
2019-05-26T07:58:37.647Z,1011.87
2019-05-26T07:59:37.656Z,1011.84
2019-05-26T08:00:37.669Z,1011.77
2019-05-26T08:01:37.690Z,1011.91
2019-05-26T08:02:37.693Z,1011.70
2019-05-26T08:03:37.708Z,1011.68
2019-05-26T08:04:37.705Z,1011.55
2019-05-26T08:05:37.720Z,1011.60
2019-05-26T08:06:37.720Z,1011.59
2019-05-26T08:07:37.733Z,1011.64
2019-05-26T08:08:37.739Z,1011.92
2019-05-26T08:09:37.749Z,1011.74
2019-05-26T08:10:37.760Z,1011.88
2019-05-26T08:11:37.768Z,1011.87
2019-05-26T08:12:37.774Z,1011.80
2019-05-26T08:13:37.783Z,1011.73
2019-05-26T08:14:37.795Z,1011.91
2019-05-26T08:15:37.803Z,1012.00
2019-05-26T08:16:37.812Z,1012.00
2019-05-26T08:17:37.830Z,1012.25
2019-05-26T08:18:37.828Z,1012.35
2019-05-26T08:19:37.836Z,1012.23
2019-05-26T08:20:37.849Z,1011.92
2019-05-26T08:21:37.860Z,1011.63
2019-05-26T08:22:37.876Z,1011.66
2019-05-26T08:23:37.881Z,1011.59
2019-05-26T08:24:37.888Z,1011.54
2019-05-26T08:25:37.897Z,1011.56
2019-05-26T08:26:37.914Z,1011.47
2019-05-26T08:27:37.919Z,1011.49
2019-05-26T08:28:37.935Z,1011.44
2019-05-26T08:29:37.944Z,1011.42
2019-05-26T08:30:37.952Z,1011.28
2019-05-26T08:31:37.962Z,1011.18
2019-05-26T08:32:37.977Z,1011.10
2019-05-26T08:33:37.985Z,1011.04
2019-05-26T08:34:37.993Z,1011.01
2019-05-26T08:35:38.001Z,1011.00
2019-05-26T08:36:38.010Z,1010.98
2019-05-26T08:37:38.019Z,1010.98
2019-05-26T08:38:38.025Z,1010.91
2019-05-26T08:39:38.060Z,1010.91
2019-05-26T08:40:38.042Z,1010.87
2019-05-26T08:41:38.051Z,1010.86
2019-05-26T08:42:44.557Z,1010.83
2019-05-26T08:43:38.067Z,1010.74
2019-05-26T08:44:38.070Z,1010.76
2019-05-26T08:45:38.080Z,1010.78
2019-05-26T08:46:38.088Z,1010.76
2019-05-26T08:47:38.093Z,1010.77
2019-05-26T08:48:38.097Z,1010.87
2019-05-26T08:49:38.101Z,1010.76
2019-05-26T08:50:38.106Z,1010.74
2019-05-26T08:51:38.110Z,1010.73
2019-05-26T08:52:38.122Z,1010.65
2019-05-26T08:53:38.126Z,1010.67
2019-05-26T08:54:38.134Z,1010.66
2019-05-26T08:55:38.137Z,1010.67
2019-05-26T08:56:38.139Z,1010.64
2019-05-26T08:57:38.143Z,1010.64
2019-05-26T08:58:38.153Z,1010.57
2019-05-26T08:59:38.157Z,1010.61
2019-05-26T09:00:38.187Z,1010.60
2019-05-26T09:01:38.172Z,1010.55
2019-05-26T09:02:38.222Z,1010.56
2019-05-26T09:03:38.174Z,1010.55
2019-05-26T09:04:38.183Z,1010.53
2019-05-26T09:05:38.190Z,1010.49
2019-05-26T09:06:38.191Z,1010.50
2019-05-26T09:07:38.192Z,1010.50
2019-05-26T09:08:38.192Z,1010.51
2019-05-26T09:09:38.197Z,1010.43
2019-05-26T09:10:38.203Z,1010.48
2019-05-26T09:11:38.206Z,1010.48
2019-05-26T09:12:38.214Z,1010.46
2019-05-26T09:13:38.216Z,1010.43
2019-05-26T09:14:38.219Z,1010.42
2019-05-26T09:15:38.221Z,1010.46
2019-05-26T09:16:38.221Z,1010.51
2019-05-26T09:17:38.225Z,1010.46
2019-05-26T09:18:38.233Z,1010.46
2019-05-26T09:19:38.235Z,1010.44
2019-05-26T09:20:38.236Z,1010.40
2019-05-26T09:21:38.237Z,1010.38
2019-05-26T09:22:38.248Z,1010.37
2019-05-26T09:23:38.247Z,1010.41
2019-05-26T09:24:38.255Z,1010.44
2019-05-26T09:25:38.257Z,1010.42
2019-05-26T09:26:38.258Z,1010.40
2019-05-26T09:27:38.266Z,1010.39
2019-05-26T09:28:38.262Z,1010.44
2019-05-26T09:29:38.263Z,1010.36
2019-05-26T09:30:38.265Z,1010.36
2019-05-26T09:31:38.268Z,1010.31
2019-05-26T09:32:38.273Z,1010.30
2019-05-26T09:33:38.283Z,1010.41
2019-05-26T09:34:38.277Z,1010.39
2019-05-26T09:35:38.277Z,1010.32
2019-05-26T09:36:38.286Z,1010.32
2019-05-26T09:37:38.286Z,1010.33
2019-05-26T09:38:38.294Z,1010.27
2019-05-26T09:39:38.334Z,1010.26
2019-05-26T09:40:38.294Z,1010.23
2019-05-26T09:41:38.298Z,1010.21
2019-05-26T09:42:38.299Z,1010.22
2019-05-26T09:43:38.300Z,1010.19
2019-05-26T09:44:38.305Z,1010.17
2019-05-26T09:45:38.359Z,1010.13
2019-05-26T09:46:38.322Z,1010.13
2019-05-26T09:47:38.310Z,1010.14
2019-05-26T09:48:38.308Z,1010.12
2019-05-26T09:49:38.310Z,1010.10
2019-05-26T09:50:38.315Z,1010.15
2019-05-26T09:51:38.321Z,1010.11
2019-05-26T09:52:38.317Z,1010.08
2019-05-26T09:53:38.319Z,1010.15
2019-05-26T09:54:38.323Z,1010.12
2019-05-26T09:55:38.323Z,1010.13
2019-05-26T09:56:38.336Z,1010.10
2019-05-26T09:57:38.332Z,1010.12
2019-05-26T09:58:38.335Z,1010.05
2019-05-26T09:59:38.335Z,1010.08
2019-05-26T10:00:38.335Z,1010.11
2019-05-26T10:01:38.336Z,1010.10
2019-05-26T10:02:38.338Z,1010.12
2019-05-26T10:03:38.338Z,1010.04
2019-05-26T10:04:38.342Z,1010.05
2019-05-26T10:05:38.346Z,1010.07
2019-05-26T10:06:38.343Z,1010.04
2019-05-26T10:07:38.343Z,1010.09
2019-05-26T10:08:38.351Z,1010.02
2019-05-26T10:09:38.352Z,1009.99
2019-05-26T10:10:38.357Z,1010.07
2019-05-26T10:11:38.358Z,1010.07
2019-05-26T10:12:38.356Z,1010.07
2019-05-26T10:13:38.357Z,1010.06
2019-05-26T10:14:38.363Z,1010.12
2019-05-26T10:15:38.364Z,1010.08
2019-05-26T10:16:38.363Z,1010.09
2019-05-26T10:17:38.364Z,1010.14
2019-05-26T10:18:38.369Z,1010.12
2019-05-26T10:19:38.372Z,1010.08
2019-05-26T10:20:38.380Z,1010.09
2019-05-26T10:21:38.383Z,1010.09
2019-05-26T10:22:38.387Z,1010.16
2019-05-26T10:23:38.381Z,1010.12
2019-05-26T10:24:38.388Z,1010.10
2019-05-26T10:25:38.391Z,1010.13
2019-05-26T10:26:38.392Z,1010.09
2019-05-26T10:27:38.394Z,1010.16
2019-05-26T10:28:38.391Z,1010.17
2019-05-26T10:29:38.394Z,1010.15
2019-05-26T10:30:38.397Z,1010.10
2019-05-26T10:31:38.399Z,1010.12
2019-05-26T10:32:38.410Z,1010.08
2019-05-26T10:33:38.409Z,1010.11
2019-05-26T10:34:38.416Z,1010.15
2019-05-26T10:35:38.416Z,1010.10
2019-05-26T10:36:38.417Z,1010.16
2019-05-26T10:37:38.421Z,1010.18
2019-05-26T10:38:38.427Z,1010.15
2019-05-26T10:39:38.428Z,1010.22
2019-05-26T10:40:38.427Z,1010.25
2019-05-26T10:41:38.430Z,1010.16
2019-05-26T10:42:38.432Z,1010.18
2019-05-26T10:43:46.779Z,1010.17
2019-05-26T10:44:38.441Z,1010.18
2019-05-26T10:45:38.443Z,1010.15
2019-05-26T10:46:38.448Z,1010.13
2019-05-26T10:47:38.452Z,1010.06
2019-05-26T10:48:38.453Z,1010.06
2019-05-26T10:49:38.581Z,1010.07
2019-05-26T10:50:38.460Z,1010.07
2019-05-26T10:51:38.462Z,1010.10
2019-05-26T10:52:38.468Z,1009.97
2019-05-26T10:53:38.471Z,1010.04
2019-05-26T10:54:38.472Z,1010.02
2019-05-26T10:55:38.477Z,1009.95
2019-05-26T10:56:38.481Z,1009.95
2019-05-26T10:57:38.503Z,1009.94
2019-05-26T10:58:38.487Z,1009.93
2019-05-26T10:59:38.490Z,1009.88
2019-05-26T11:00:38.489Z,1009.88
2019-05-26T11:01:38.490Z,1009.89
2019-05-26T11:02:38.496Z,1009.88
2019-05-26T11:03:38.497Z,1009.93
2019-05-26T11:04:38.501Z,1009.95
2019-05-26T11:05:38.504Z,1009.95
2019-05-26T11:06:38.513Z,1009.93
2019-05-26T11:07:38.514Z,1009.91
2019-05-26T11:08:38.512Z,1009.92
2019-05-26T11:09:38.515Z,1009.90
2019-05-26T11:10:38.524Z,1009.91
2019-05-26T11:11:38.524Z,1009.92
2019-05-26T11:12:38.529Z,1009.90
2019-05-26T11:13:40.706Z,1009.82
2019-05-26T11:14:38.528Z,1009.82
2019-05-26T11:15:38.534Z,1009.88
2019-05-26T11:16:38.536Z,1009.84
2019-05-26T11:17:38.539Z,1009.86
2019-05-26T11:18:38.545Z,1009.82
2019-05-26T11:19:38.545Z,1009.83
2019-05-26T11:20:38.546Z,1009.80
2019-05-26T11:21:38.550Z,1009.81
2019-05-26T11:22:38.563Z,1009.77
2019-05-26T11:23:38.549Z,1009.76
2019-05-26T11:24:38.562Z,1009.74
2019-05-26T11:25:38.559Z,1009.71
2019-05-26T11:26:38.558Z,1009.69
2019-05-26T11:27:38.562Z,1009.72
2019-05-26T11:28:38.565Z,1009.73
2019-05-26T11:29:38.567Z,1009.73
2019-05-26T11:30:38.575Z,1009.73
2019-05-26T11:31:38.575Z,1009.69
2019-05-26T11:32:38.572Z,1009.67
2019-05-26T11:33:38.574Z,1009.67
2019-05-26T11:34:38.577Z,1009.64
2019-05-26T11:35:38.578Z,1009.64
2019-05-26T11:36:38.590Z,1009.61
2019-05-26T11:37:38.587Z,1009.68
2019-05-26T11:38:38.588Z,1009.67
2019-05-26T11:39:38.587Z,1009.62
2019-05-26T11:40:38.588Z,1009.56
2019-05-26T11:41:38.588Z,1009.57
2019-05-26T11:42:38.594Z,1009.58
2019-05-26T11:43:38.597Z,1009.54
2019-05-26T11:44:38.596Z,1009.52
2019-05-26T11:45:38.597Z,1009.57
2019-05-26T11:46:38.601Z,1009.57
2019-05-26T11:47:38.609Z,1009.57
2019-05-26T11:48:39.439Z,1009.61
2019-05-26T11:49:38.612Z,1009.64
2019-05-26T11:50:38.612Z,1009.59
2019-05-26T11:51:38.613Z,1009.65
2019-05-26T11:52:38.611Z,1009.67
2019-05-26T11:53:38.616Z,1009.58
2019-05-26T11:54:38.615Z,1009.60
2019-05-26T11:55:38.619Z,1009.66
2019-05-26T11:56:38.621Z,1009.65
2019-05-26T11:57:38.640Z,1009.61
2019-05-26T11:58:38.623Z,1009.59
2019-05-26T11:59:38.627Z,1009.59
2019-05-26T12:00:38.632Z,1009.56
2019-05-26T12:01:38.636Z,1009.56
2019-05-26T12:02:38.640Z,1009.56
2019-05-26T12:03:38.644Z,1009.51
2019-05-26T12:04:38.642Z,1009.52
2019-05-26T12:05:38.645Z,1009.52